sensor_id;sensor_type;location;lat;lon;timestamp;temperature;humidity
10089;DHT22;51898;49.864;8.550;2023-07-22T00:00:22;17.10;74.10
10089;DHT22;51898;49.864;8.550;2023-07-22T00:03:24;17.10;73.90
10089;DHT22;51898;49.864;8.550;2023-07-22T00:06:26;17.00;74.00
10089;DHT22;51898;49.864;8.550;2023-07-22T00:09:28;17.00;74.90
10089;DHT22;51898;49.864;8.550;2023-07-22T00:12:34;17.00;75.50
10089;DHT22;51898;49.864;8.550;2023-07-22T00:15:36;17.00;76.10
10089;DHT22;51898;49.864;8.550;2023-07-22T00:18:38;17.00;76.20
10089;DHT22;51898;49.864;8.550;2023-07-22T00:21:39;16.90;76.30
10089;DHT22;51898;49.864;8.550;2023-07-22T00:24:41;16.90;76.20
10089;DHT22;51898;49.864;8.550;2023-07-22T00:27:43;16.90;76.50
10089;DHT22;51898;49.864;8.550;2023-07-22T00:30:45;16.90;76.80
10089;DHT22;51898;49.864;8.550;2023-07-22T00:33:46;16.90;76.90
10089;DHT22;51898;49.864;8.550;2023-07-22T00:36:48;16.90;76.50
10089;DHT22;51898;49.864;8.550;2023-07-22T00:39:50;16.90;76.60
10089;DHT22;51898;49.864;8.550;2023-07-22T00:42:51;17.00;76.30
10089;DHT22;51898;49.864;8.550;2023-07-22T00:45:53;16.90;76.40
10089;DHT22;51898;49.864;8.550;2023-07-22T00:48:55;16.90;76.20
10089;DHT22;51898;49.864;8.550;2023-07-22T00:52:00;16.80;76.70
10089;DHT22;51898;49.864;8.550;2023-07-22T00:55:04;16.70;76.60
10089;DHT22;51898;49.864;8.550;2023-07-22T00:58:06;16.60;76.70
10089;DHT22;51898;49.864;8.550;2023-07-22T01:01:08;16.50;76.90
10089;DHT22;51898;49.864;8.550;2023-07-22T01:04:10;16.50;77.10
10089;DHT22;51898;49.864;8.550;2023-07-22T01:07:12;16.40;77.90
10089;DHT22;51898;49.864;8.550;2023-07-22T01:10:14;16.40;78.30
10089;DHT22;51898;49.864;8.550;2023-07-22T01:13:17;16.40;78.10
10089;DHT22;51898;49.864;8.550;2023-07-22T01:16:18;16.40;77.90
10089;DHT22;51898;49.864;8.550;2023-07-22T01:19:20;16.40;77.70
10089;DHT22;51898;49.864;8.550;2023-07-22T01:22:23;16.40;77.90
10089;DHT22;51898;49.864;8.550;2023-07-22T01:25:25;16.40;77.80
10089;DHT22;51898;49.864;8.550;2023-07-22T01:28:29;16.40;78.00
10089;DHT22;51898;49.864;8.550;2023-07-22T01:31:34;16.40;78.00
10089;DHT22;51898;49.864;8.550;2023-07-22T01:34:36;16.40;78.40
10089;DHT22;51898;49.864;8.550;2023-07-22T01:37:37;16.40;78.30
10089;DHT22;51898;49.864;8.550;2023-07-22T01:40:39;16.40;77.90
10089;DHT22;51898;49.864;8.550;2023-07-22T01:43:41;16.40;77.90
10089;DHT22;51898;49.864;8.550;2023-07-22T01:46:42;16.30;78.00
10089;DHT22;51898;49.864;8.550;2023-07-22T01:49:44;16.30;78.00
10089;DHT22;51898;49.864;8.550;2023-07-22T01:52:46;16.20;78.50
10089;DHT22;51898;49.864;8.550;2023-07-22T01:55:48;16.20;78.60
10089;DHT22;51898;49.864;8.550;2023-07-22T01:58:50;16.10;78.50
10089;DHT22;51898;49.864;8.550;2023-07-22T02:01:51;16.10;78.30
10089;DHT22;51898;49.864;8.550;2023-07-22T02:04:53;16.10;78.50
10089;DHT22;51898;49.864;8.550;2023-07-22T02:07:55;16.00;78.80
10089;DHT22;51898;49.864;8.550;2023-07-22T02:11:04;16.00;79.00
10089;DHT22;51898;49.864;8.550;2023-07-22T02:14:07;16.00;78.70
10089;DHT22;51898;49.864;8.550;2023-07-22T02:17:09;15.90;78.60
10089;DHT22;51898;49.864;8.550;2023-07-22T02:20:11;15.90;78.40
10089;DHT22;51898;49.864;8.550;2023-07-22T02:23:12;15.90;78.20
10089;DHT22;51898;49.864;8.550;2023-07-22T02:26:14;15.80;78.10
10089;DHT22;51898;49.864;8.550;2023-07-22T02:29:16;15.80;78.50
10089;DHT22;51898;49.864;8.550;2023-07-22T02:32:20;15.70;78.70
10089;DHT22;51898;49.864;8.550;2023-07-22T02:35:21;15.70;80.50
10089;DHT22;51898;49.864;8.550;2023-07-22T02:38:23;15.70;81.40
10089;DHT22;51898;49.864;8.550;2023-07-22T02:41:25;15.60;82.60
10089;DHT22;51898;49.864;8.550;2023-07-22T02:44:29;15.60;83.20
10089;DHT22;51898;49.864;8.550;2023-07-22T02:47:34;15.50;83.40
10089;DHT22;51898;49.864;8.550;2023-07-22T02:50:36;15.40;84.00
10089;DHT22;51898;49.864;8.550;2023-07-22T02:53:38;15.30;84.40
10089;DHT22;51898;49.864;8.550;2023-07-22T02:56:40;15.30;84.60
10089;DHT22;51898;49.864;8.550;2023-07-22T02:59:42;15.20;85.10
10089;DHT22;51898;49.864;8.550;2023-07-22T03:02:44;15.10;84.80
10089;DHT22;51898;49.864;8.550;2023-07-22T03:05:49;15.00;84.70
10089;DHT22;51898;49.864;8.550;2023-07-22T03:08:51;15.00;84.50
10089;DHT22;51898;49.864;8.550;2023-07-22T03:11:53;14.90;84.90
10089;DHT22;51898;49.864;8.550;2023-07-22T03:14:55;14.90;85.60
10089;DHT22;51898;49.864;8.550;2023-07-22T03:17:57;14.90;85.10
10089;DHT22;51898;49.864;8.550;2023-07-22T03:21:01;14.80;85.70
10089;DHT22;51898;49.864;8.550;2023-07-22T03:24:02;14.80;85.90
10089;DHT22;51898;49.864;8.550;2023-07-22T03:27:04;14.80;85.70
10089;DHT22;51898;49.864;8.550;2023-07-22T03:30:07;14.80;85.90
10089;DHT22;51898;49.864;8.550;2023-07-22T03:33:12;14.70;85.90
10089;DHT22;51898;49.864;8.550;2023-07-22T03:36:13;14.70;86.00
10089;DHT22;51898;49.864;8.550;2023-07-22T03:39:15;14.70;86.30
10089;DHT22;51898;49.864;8.550;2023-07-22T03:42:17;14.70;86.30
10089;DHT22;51898;49.864;8.550;2023-07-22T03:45:19;14.60;86.30
10089;DHT22;51898;49.864;8.550;2023-07-22T03:48:21;14.60;86.30
10089;DHT22;51898;49.864;8.550;2023-07-22T03:51:23;14.50;86.10
10089;DHT22;51898;49.864;8.550;2023-07-22T03:54:25;14.50;85.60
10089;DHT22;51898;49.864;8.550;2023-07-22T03:57:27;14.40;85.60
10089;DHT22;51898;49.864;8.550;2023-07-22T04:00:29;14.40;86.00
10089;DHT22;51898;49.864;8.550;2023-07-22T04:03:31;14.30;86.30
10089;DHT22;51898;49.864;8.550;2023-07-22T04:06:32;14.30;86.70
10089;DHT22;51898;49.864;8.550;2023-07-22T04:09:35;14.30;86.70
10089;DHT22;51898;49.864;8.550;2023-07-22T04:12:37;14.50;86.50
10089;DHT22;51898;49.864;8.550;2023-07-22T04:15:42;14.50;85.80
10089;DHT22;51898;49.864;8.550;2023-07-22T04:18:44;14.70;84.90
10089;DHT22;51898;49.864;8.550;2023-07-22T04:21:46;14.90;84.30
10089;DHT22;51898;49.864;8.550;2023-07-22T04:24:47;15.10;83.10
10089;DHT22;51898;49.864;8.550;2023-07-22T04:27:52;15.30;82.20
10089;DHT22;51898;49.864;8.550;2023-07-22T04:30:58;15.60;81.20
10089;DHT22;51898;49.864;8.550;2023-07-22T04:34:00;15.80;80.60
10089;DHT22;51898;49.864;8.550;2023-07-22T04:37:02;16.00;79.90
10089;DHT22;51898;49.864;8.550;2023-07-22T04:40:04;16.20;79.20
10089;DHT22;51898;49.864;8.550;2023-07-22T04:43:08;16.40;78.40
10089;DHT22;51898;49.864;8.550;2023-07-22T04:46:09;16.50;78.00
10089;DHT22;51898;49.864;8.550;2023-07-22T04:49:11;16.70;77.20
10089;DHT22;51898;49.864;8.550;2023-07-22T04:52:13;16.90;76.50
10089;DHT22;51898;49.864;8.550;2023-07-22T04:55:15;17.10;76.10
10089;DHT22;51898;49.864;8.550;2023-07-22T04:58:16;17.40;75.30
10089;DHT22;51898;49.864;8.550;2023-07-22T05:01:19;17.60;74.30
10089;DHT22;51898;49.864;8.550;2023-07-22T05:04:20;17.80;74.00
10089;DHT22;51898;49.864;8.550;2023-07-22T05:07:23;18.00;73.30
10089;DHT22;51898;49.864;8.550;2023-07-22T05:10:28;18.20;73.00
10089;DHT22;51898;49.864;8.550;2023-07-22T05:13:30;18.40;71.90
10089;DHT22;51898;49.864;8.550;2023-07-22T05:16:32;18.60;70.80
10089;DHT22;51898;49.864;8.550;2023-07-22T05:19:33;18.70;70.30
10089;DHT22;51898;49.864;8.550;2023-07-22T05:22:36;18.80;70.00
10089;DHT22;51898;49.864;8.550;2023-07-22T05:25:38;19.00;69.10
10089;DHT22;51898;49.864;8.550;2023-07-22T05:28:40;19.10;68.20
10089;DHT22;51898;49.864;8.550;2023-07-22T05:31:42;19.20;68.20
10089;DHT22;51898;49.864;8.550;2023-07-22T05:34:44;19.40;66.90
10089;DHT22;51898;49.864;8.550;2023-07-22T05:37:46;19.40;65.40
10089;DHT22;51898;49.864;8.550;2023-07-22T05:40:47;19.70;66.00
10089;DHT22;51898;49.864;8.550;2023-07-22T05:43:51;19.60;64.20
10089;DHT22;51898;49.864;8.550;2023-07-22T05:46:53;19.70;64.50
10089;DHT22;51898;49.864;8.550;2023-07-22T05:49:55;19.60;65.90
10089;DHT22;51898;49.864;8.550;2023-07-22T05:52:56;19.70;65.10
10089;DHT22;51898;49.864;8.550;2023-07-22T05:55:58;19.70;64.90
10089;DHT22;51898;49.864;8.550;2023-07-22T05:59:00;19.70;64.20
10089;DHT22;51898;49.864;8.550;2023-07-22T06:02:03;19.80;63.90
10089;DHT22;51898;49.864;8.550;2023-07-22T06:05:05;19.70;64.50
10089;DHT22;51898;49.864;8.550;2023-07-22T06:08:07;19.70;63.90
10089;DHT22;51898;49.864;8.550;2023-07-22T06:11:09;19.70;64.70
10089;DHT22;51898;49.864;8.550;2023-07-22T06:14:10;19.90;64.20
10089;DHT22;51898;49.864;8.550;2023-07-22T06:17:12;20.00;63.80
10089;DHT22;51898;49.864;8.550;2023-07-22T06:20:14;20.30;63.50
10089;DHT22;51898;49.864;8.550;2023-07-22T06:23:16;20.50;62.50
10089;DHT22;51898;49.864;8.550;2023-07-22T06:26:17;20.80;62.00
10089;DHT22;51898;49.864;8.550;2023-07-22T06:29:22;20.80;60.90
10089;DHT22;51898;49.864;8.550;2023-07-22T06:32:24;20.90;61.90
10089;DHT22;51898;49.864;8.550;2023-07-22T06:35:26;21.10;61.40
10089;DHT22;51898;49.864;8.550;2023-07-22T06:38:28;21.20;60.70
10089;DHT22;51898;49.864;8.550;2023-07-22T06:41:30;21.10;60.80
10089;DHT22;51898;49.864;8.550;2023-07-22T06:44:32;21.30;61.00
10089;DHT22;51898;49.864;8.550;2023-07-22T06:47:34;21.30;61.90
10089;DHT22;51898;49.864;8.550;2023-07-22T06:50:37;21.60;60.40
10089;DHT22;51898;49.864;8.550;2023-07-22T06:53:39;21.60;60.40
10089;DHT22;51898;49.864;8.550;2023-07-22T06:56:42;21.90;59.40
10089;DHT22;51898;49.864;8.550;2023-07-22T06:59:43;22.00;59.40
10089;DHT22;51898;49.864;8.550;2023-07-22T07:02:45;22.20;59.00
10089;DHT22;51898;49.864;8.550;2023-07-22T07:05:57;22.30;59.80
10089;DHT22;51898;49.864;8.550;2023-07-22T07:08:59;22.70;58.50
10089;DHT22;51898;49.864;8.550;2023-07-22T07:12:02;23.00;56.70
10089;DHT22;51898;49.864;8.550;2023-07-22T07:15:04;23.10;56.50
10089;DHT22;51898;49.864;8.550;2023-07-22T07:18:06;23.30;56.00
10089;DHT22;51898;49.864;8.550;2023-07-22T07:21:07;23.50;55.50
10089;DHT22;51898;49.864;8.550;2023-07-22T07:24:09;23.60;54.40
10089;DHT22;51898;49.864;8.550;2023-07-22T07:27:11;23.40;54.40
10089;DHT22;51898;49.864;8.550;2023-07-22T07:30:12;23.30;54.70
10089;DHT22;51898;49.864;8.550;2023-07-22T07:33:14;23.30;54.40
10089;DHT22;51898;49.864;8.550;2023-07-22T07:36:16;23.00;55.00
10089;DHT22;51898;49.864;8.550;2023-07-22T07:39:18;22.90;56.20
10089;DHT22;51898;49.864;8.550;2023-07-22T07:42:19;22.90;55.60
10089;DHT22;51898;49.864;8.550;2023-07-22T07:45:21;23.00;55.60
10089;DHT22;51898;49.864;8.550;2023-07-22T07:48:23;23.00;55.50
10089;DHT22;51898;49.864;8.550;2023-07-22T07:51:25;22.90;55.30
10089;DHT22;51898;49.864;8.550;2023-07-22T07:54:28;22.70;55.60
10089;DHT22;51898;49.864;8.550;2023-07-22T07:57:33;22.50;56.60
10089;DHT22;51898;49.864;8.550;2023-07-22T08:00:35;22.50;56.50
10089;DHT22;51898;49.864;8.550;2023-07-22T08:03:41;22.40;56.60
10089;DHT22;51898;49.864;8.550;2023-07-22T08:06:43;22.40;55.60
10089;DHT22;51898;49.864;8.550;2023-07-22T08:09:47;22.50;55.70
10089;DHT22;51898;49.864;8.550;2023-07-22T08:12:52;22.50;55.30
10089;DHT22;51898;49.864;8.550;2023-07-22T08:15:54;22.40;56.50
10089;DHT22;51898;49.864;8.550;2023-07-22T08:18:55;22.60;55.60
10089;DHT22;51898;49.864;8.550;2023-07-22T08:21:57;22.80;55.00
10089;DHT22;51898;49.864;8.550;2023-07-22T08:24:59;22.90;54.10
10089;DHT22;51898;49.864;8.550;2023-07-22T08:28:00;22.90;54.80
10089;DHT22;51898;49.864;8.550;2023-07-22T08:31:03;23.00;52.50
10089;DHT22;51898;49.864;8.550;2023-07-22T08:34:05;23.00;51.70
10089;DHT22;51898;49.864;8.550;2023-07-22T08:37:06;23.20;50.90
10089;DHT22;51898;49.864;8.550;2023-07-22T08:40:08;23.20;50.90
10089;DHT22;51898;49.864;8.550;2023-07-22T08:43:11;23.40;52.00
10089;DHT22;51898;49.864;8.550;2023-07-22T08:46:13;23.50;51.90
10089;DHT22;51898;49.864;8.550;2023-07-22T08:49:15;23.50;51.10
10089;DHT22;51898;49.864;8.550;2023-07-22T08:52:17;23.60;51.40
10089;DHT22;51898;49.864;8.550;2023-07-22T08:55:20;23.50;51.00
10089;DHT22;51898;49.864;8.550;2023-07-22T08:58:23;23.40;51.70
10089;DHT22;51898;49.864;8.550;2023-07-22T09:01:25;23.40;51.90
10089;DHT22;51898;49.864;8.550;2023-07-22T09:04:27;23.40;52.20
10089;DHT22;51898;49.864;8.550;2023-07-22T09:07:29;23.30;52.40
10089;DHT22;51898;49.864;8.550;2023-07-22T09:10:32;23.40;52.10
10089;DHT22;51898;49.864;8.550;2023-07-22T09:13:35;23.60;51.00
10089;DHT22;51898;49.864;8.550;2023-07-22T09:16:37;23.80;52.10
10089;DHT22;51898;49.864;8.550;2023-07-22T09:19:39;24.00;52.00
10089;DHT22;51898;49.864;8.550;2023-07-22T09:22:48;24.30;51.50
10089;DHT22;51898;49.864;8.550;2023-07-22T09:26:13;24.50;50.20
10089;DHT22;51898;49.864;8.550;2023-07-22T09:29:14;24.40;47.90
10089;DHT22;51898;49.864;8.550;2023-07-22T09:32:16;24.50;48.40
10089;DHT22;51898;49.864;8.550;2023-07-22T09:35:18;24.90;48.80
10089;DHT22;51898;49.864;8.550;2023-07-22T09:38:24;25.10;47.30
10089;DHT22;51898;49.864;8.550;2023-07-22T09:41:29;25.30;44.60
10089;DHT22;51898;49.864;8.550;2023-07-22T09:44:33;25.20;43.80
10089;DHT22;51898;49.864;8.550;2023-07-22T09:47:46;25.30;44.50
10089;DHT22;51898;49.864;8.550;2023-07-22T09:50:58;25.30;47.50
10089;DHT22;51898;49.864;8.550;2023-07-22T09:54:01;25.40;47.90
10089;DHT22;51898;49.864;8.550;2023-07-22T09:57:04;25.30;47.50
10089;DHT22;51898;49.864;8.550;2023-07-22T10:00:06;25.20;46.60
10089;DHT22;51898;49.864;8.550;2023-07-22T10:03:10;25.00;47.00
10089;DHT22;51898;49.864;8.550;2023-07-22T10:06:16;24.90;46.60
10089;DHT22;51898;49.864;8.550;2023-07-22T10:09:18;25.00;46.20
10089;DHT22;51898;49.864;8.550;2023-07-22T10:12:23;25.20;45.90
10089;DHT22;51898;49.864;8.550;2023-07-22T10:15:27;25.20;46.10
10089;DHT22;51898;49.864;8.550;2023-07-22T10:18:31;25.20;46.20
10089;DHT22;51898;49.864;8.550;2023-07-22T10:21:33;25.10;46.10
10089;DHT22;51898;49.864;8.550;2023-07-22T10:24:39;25.00;46.00
10089;DHT22;51898;49.864;8.550;2023-07-22T10:27:43;25.10;46.10
10089;DHT22;51898;49.864;8.550;2023-07-22T10:30:44;25.00;45.50
10089;DHT22;51898;49.864;8.550;2023-07-22T10:33:46;25.20;46.20
10089;DHT22;51898;49.864;8.550;2023-07-22T10:36:49;25.40;45.20
10089;DHT22;51898;49.864;8.550;2023-07-22T10:39:51;25.40;45.30
10089;DHT22;51898;49.864;8.550;2023-07-22T10:43:03;25.80;45.00
10089;DHT22;51898;49.864;8.550;2023-07-22T10:46:08;26.20;43.50
10089;DHT22;51898;49.864;8.550;2023-07-22T10:49:13;26.60;43.20
10089;DHT22;51898;49.864;8.550;2023-07-22T10:52:39;26.60;42.60
10089;DHT22;51898;49.864;8.550;2023-07-22T10:59:10;26.40;43.80
10089;DHT22;51898;49.864;8.550;2023-07-22T11:02:23;27.00;43.00
10089;DHT22;51898;49.864;8.550;2023-07-22T11:05:51;27.30;40.80
10089;DHT22;51898;49.864;8.550;2023-07-22T11:08:55;27.40;40.90
10089;DHT22;51898;49.864;8.550;2023-07-22T11:12:06;27.40;41.00
10089;DHT22;51898;49.864;8.550;2023-07-22T11:15:07;27.30;40.10
10089;DHT22;51898;49.864;8.550;2023-07-22T11:18:09;27.30;40.80
10089;DHT22;51898;49.864;8.550;2023-07-22T11:21:15;27.50;40.20
10089;DHT22;51898;49.864;8.550;2023-07-22T11:24:17;27.60;40.10
10089;DHT22;51898;49.864;8.550;2023-07-22T11:27:19;27.40;40.90
10089;DHT22;51898;49.864;8.550;2023-07-22T11:30:24;27.30;41.00
10089;DHT22;51898;49.864;8.550;2023-07-22T11:33:25;27.30;41.40
10089;DHT22;51898;49.864;8.550;2023-07-22T11:36:27;27.20;41.30
10089;DHT22;51898;49.864;8.550;2023-07-22T11:39:29;27.10;41.40
10089;DHT22;51898;49.864;8.550;2023-07-22T11:42:34;26.90;41.60
10089;DHT22;51898;49.864;8.550;2023-07-22T11:45:38;27.00;40.80
10089;DHT22;51898;49.864;8.550;2023-07-22T11:48:52;27.10;41.10
10089;DHT22;51898;49.864;8.550;2023-07-22T11:51:58;27.30;40.70
10089;DHT22;51898;49.864;8.550;2023-07-22T11:55:02;26.90;41.10
10089;DHT22;51898;49.864;8.550;2023-07-22T11:58:06;27.00;41.00
10089;DHT22;51898;49.864;8.550;2023-07-22T12:01:10;27.00;40.90
10089;DHT22;51898;49.864;8.550;2023-07-22T12:04:13;26.90;41.90
10089;DHT22;51898;49.864;8.550;2023-07-22T12:07:29;26.90;41.70
10089;DHT22;51898;49.864;8.550;2023-07-22T12:10:31;26.80;42.00
10089;DHT22;51898;49.864;8.550;2023-07-22T12:13:38;26.80;42.10
10089;DHT22;51898;49.864;8.550;2023-07-22T12:16:41;26.90;40.90
10089;DHT22;51898;49.864;8.550;2023-07-22T12:20:05;27.00;41.50
10089;DHT22;51898;49.864;8.550;2023-07-22T12:23:07;27.10;41.60
10089;DHT22;51898;49.864;8.550;2023-07-22T12:26:09;27.40;41.70
10089;DHT22;51898;49.864;8.550;2023-07-22T12:29:11;27.90;39.50
10089;DHT22;51898;49.864;8.550;2023-07-22T12:32:13;28.40;38.90
10089;DHT22;51898;49.864;8.550;2023-07-22T12:35:14;28.70;37.70
10089;DHT22;51898;49.864;8.550;2023-07-22T12:38:16;29.00;38.00
10089;DHT22;51898;49.864;8.550;2023-07-22T12:41:18;28.90;36.60
10089;DHT22;51898;49.864;8.550;2023-07-22T12:44:19;28.90;36.70
10089;DHT22;51898;49.864;8.550;2023-07-22T12:47:21;28.90;36.40
10089;DHT22;51898;49.864;8.550;2023-07-22T12:50:23;28.60;35.40
10089;DHT22;51898;49.864;8.550;2023-07-22T12:53:25;28.10;36.70
10089;DHT22;51898;49.864;8.550;2023-07-22T12:56:27;28.00;36.20
10089;DHT22;51898;49.864;8.550;2023-07-22T12:59:32;27.50;37.30
10089;DHT22;51898;49.864;8.550;2023-07-22T13:02:35;27.20;36.60
10089;DHT22;51898;49.864;8.550;2023-07-22T13:05:36;27.20;37.30
10089;DHT22;51898;49.864;8.550;2023-07-22T13:08:38;27.30;37.50
10089;DHT22;51898;49.864;8.550;2023-07-22T13:11:40;27.40;37.10
10089;DHT22;51898;49.864;8.550;2023-07-22T13:14:42;27.20;36.80
10089;DHT22;51898;49.864;8.550;2023-07-22T13:17:43;27.00;37.30
10089;DHT22;51898;49.864;8.550;2023-07-22T13:20:45;27.00;37.30
10089;DHT22;51898;49.864;8.550;2023-07-22T13:23:47;27.10;37.30
10089;DHT22;51898;49.864;8.550;2023-07-22T13:26:50;27.00;37.60
10089;DHT22;51898;49.864;8.550;2023-07-22T13:29:51;27.10;37.10
10089;DHT22;51898;49.864;8.550;2023-07-22T13:32:53;27.50;36.00
10089;DHT22;51898;49.864;8.550;2023-07-22T13:35:56;27.70;35.90
10089;DHT22;51898;49.864;8.550;2023-07-22T13:38:58;27.50;36.20
10089;DHT22;51898;49.864;8.550;2023-07-22T13:41:59;27.30;36.50
10089;DHT22;51898;49.864;8.550;2023-07-22T13:45:01;27.10;36.90
10089;DHT22;51898;49.864;8.550;2023-07-22T13:48:04;27.00;37.20
10089;DHT22;51898;49.864;8.550;2023-07-22T13:51:05;27.10;37.10
10089;DHT22;51898;49.864;8.550;2023-07-22T13:54:07;27.10;37.10
10089;DHT22;51898;49.864;8.550;2023-07-22T13:57:09;27.30;36.60
10089;DHT22;51898;49.864;8.550;2023-07-22T14:00:11;27.30;36.70
10089;DHT22;51898;49.864;8.550;2023-07-22T14:03:14;27.50;36.80
10089;DHT22;51898;49.864;8.550;2023-07-22T14:06:15;27.70;36.40
10089;DHT22;51898;49.864;8.550;2023-07-22T14:09:17;27.50;35.50
10089;DHT22;51898;49.864;8.550;2023-07-22T14:12:19;27.40;36.30
10089;DHT22;51898;49.864;8.550;2023-07-22T14:15:20;27.20;36.00
10089;DHT22;51898;49.864;8.550;2023-07-22T14:18:22;26.80;36.50
10089;DHT22;51898;49.864;8.550;2023-07-22T14:21:24;27.10;36.90
10089;DHT22;51898;49.864;8.550;2023-07-22T14:24:26;27.20;36.30
10089;DHT22;51898;49.864;8.550;2023-07-22T14:27:27;27.00;36.60
10089;DHT22;51898;49.864;8.550;2023-07-22T14:30:29;27.00;36.20
10089;DHT22;51898;49.864;8.550;2023-07-22T14:33:31;26.90;37.00
10089;DHT22;51898;49.864;8.550;2023-07-22T14:36:32;27.20;36.70
10089;DHT22;51898;49.864;8.550;2023-07-22T14:39:37;27.50;36.40
10089;DHT22;51898;49.864;8.550;2023-07-22T14:42:38;27.30;36.00
10089;DHT22;51898;49.864;8.550;2023-07-22T14:45:40;27.40;36.00
10089;DHT22;51898;49.864;8.550;2023-07-22T14:48:42;27.40;35.60
10089;DHT22;51898;49.864;8.550;2023-07-22T14:51:44;27.50;36.00
10089;DHT22;51898;49.864;8.550;2023-07-22T14:54:45;27.70;35.00
10089;DHT22;51898;49.864;8.550;2023-07-22T14:57:47;27.60;35.20
10089;DHT22;51898;49.864;8.550;2023-07-22T15:00:49;27.40;35.30
10089;DHT22;51898;49.864;8.550;2023-07-22T15:03:51;27.60;34.90
10089;DHT22;51898;49.864;8.550;2023-07-22T15:06:53;27.70;35.10
10089;DHT22;51898;49.864;8.550;2023-07-22T15:09:56;27.90;34.80
10089;DHT22;51898;49.864;8.550;2023-07-22T15:12:58;28.10;34.50
10089;DHT22;51898;49.864;8.550;2023-07-22T15:16:00;27.80;34.60
10089;DHT22;51898;49.864;8.550;2023-07-22T15:19:02;27.40;35.00
10089;DHT22;51898;49.864;8.550;2023-07-22T15:22:04;27.40;34.90
10089;DHT22;51898;49.864;8.550;2023-07-22T15:25:06;27.60;33.80
10089;DHT22;51898;49.864;8.550;2023-07-22T15:28:07;27.70;34.10
10089;DHT22;51898;49.864;8.550;2023-07-22T15:31:09;28.00;33.40
10089;DHT22;51898;49.864;8.550;2023-07-22T15:34:11;28.20;33.80
10089;DHT22;51898;49.864;8.550;2023-07-22T15:37:12;28.30;33.00
10089;DHT22;51898;49.864;8.550;2023-07-22T15:40:14;28.30;32.80
10089;DHT22;51898;49.864;8.550;2023-07-22T15:43:16;28.30;32.80
10089;DHT22;51898;49.864;8.550;2023-07-22T15:46:18;28.60;33.00
10089;DHT22;51898;49.864;8.550;2023-07-22T15:49:20;28.60;32.40
10089;DHT22;51898;49.864;8.550;2023-07-22T15:52:22;28.50;33.20
10089;DHT22;51898;49.864;8.550;2023-07-22T15:55:24;28.70;32.40
10089;DHT22;51898;49.864;8.550;2023-07-22T15:58:26;28.80;32.70
10089;DHT22;51898;49.864;8.550;2023-07-22T16:01:28;29.10;32.40
10089;DHT22;51898;49.864;8.550;2023-07-22T16:04:32;29.30;31.70
10089;DHT22;51898;49.864;8.550;2023-07-22T16:07:36;29.10;31.80
10089;DHT22;51898;49.864;8.550;2023-07-22T16:10:38;28.80;32.20
10089;DHT22;51898;49.864;8.550;2023-07-22T16:13:39;28.60;32.00
10089;DHT22;51898;49.864;8.550;2023-07-22T16:16:41;28.80;32.40
10089;DHT22;51898;49.864;8.550;2023-07-22T16:19:43;29.20;32.00
10089;DHT22;51898;49.864;8.550;2023-07-22T16:22:48;29.20;31.90
10089;DHT22;51898;49.864;8.550;2023-07-22T16:25:50;29.40;32.40
10089;DHT22;51898;49.864;8.550;2023-07-22T16:28:52;29.80;31.80
10089;DHT22;51898;49.864;8.550;2023-07-22T16:31:53;30.20;31.30
10089;DHT22;51898;49.864;8.550;2023-07-22T16:34:55;29.80;31.50
10089;DHT22;51898;49.864;8.550;2023-07-22T16:37:56;29.40;31.50
10089;DHT22;51898;49.864;8.550;2023-07-22T16:40:58;29.20;32.20
10089;DHT22;51898;49.864;8.550;2023-07-22T16:44:00;29.40;31.60
10089;DHT22;51898;49.864;8.550;2023-07-22T16:47:02;28.90;31.80
10089;DHT22;51898;49.864;8.550;2023-07-22T16:50:04;28.80;32.10
10089;DHT22;51898;49.864;8.550;2023-07-22T16:53:06;28.80;32.00
10089;DHT22;51898;49.864;8.550;2023-07-22T16:56:07;29.20;31.80
10089;DHT22;51898;49.864;8.550;2023-07-22T16:59:10;29.60;31.80
10089;DHT22;51898;49.864;8.550;2023-07-22T17:02:11;29.70;31.20
10089;DHT22;51898;49.864;8.550;2023-07-22T17:05:13;29.50;31.40
10089;DHT22;51898;49.864;8.550;2023-07-22T17:08:15;29.90;31.20
10089;DHT22;51898;49.864;8.550;2023-07-22T17:11:17;29.80;31.40
10089;DHT22;51898;49.864;8.550;2023-07-22T17:14:18;29.40;31.80
10089;DHT22;51898;49.864;8.550;2023-07-22T17:17:20;29.10;32.10
10089;DHT22;51898;49.864;8.550;2023-07-22T17:20:22;29.10;32.10
10089;DHT22;51898;49.864;8.550;2023-07-22T17:23:23;29.00;31.90
10089;DHT22;51898;49.864;8.550;2023-07-22T17:26:25;28.80;32.50
10089;DHT22;51898;49.864;8.550;2023-07-22T17:29:27;28.40;32.90
10089;DHT22;51898;49.864;8.550;2023-07-22T17:32:28;27.90;33.80
10089;DHT22;51898;49.864;8.550;2023-07-22T17:35:30;27.80;33.90
10089;DHT22;51898;49.864;8.550;2023-07-22T17:38:36;27.80;33.50
10089;DHT22;51898;49.864;8.550;2023-07-22T17:41:37;27.80;34.20
10089;DHT22;51898;49.864;8.550;2023-07-22T17:44:40;28.00;33.90
10089;DHT22;51898;49.864;8.550;2023-07-22T17:47:42;28.00;33.20
10089;DHT22;51898;49.864;8.550;2023-07-22T17:50:44;28.40;32.80
10089;DHT22;51898;49.864;8.550;2023-07-22T17:53:45;28.50;32.70
10089;DHT22;51898;49.864;8.550;2023-07-22T17:56:47;28.80;32.20
10089;DHT22;51898;49.864;8.550;2023-07-22T17:59:49;28.70;32.40
10089;DHT22;51898;49.864;8.550;2023-07-22T18:02:51;28.70;32.20
10089;DHT22;51898;49.864;8.550;2023-07-22T18:05:53;28.40;33.00
10089;DHT22;51898;49.864;8.550;2023-07-22T18:08:55;28.00;33.20
10089;DHT22;51898;49.864;8.550;2023-07-22T18:11:56;27.90;33.80
10089;DHT22;51898;49.864;8.550;2023-07-22T18:14:58;27.60;34.10
10089;DHT22;51898;49.864;8.550;2023-07-22T18:18:00;27.30;34.30
10089;DHT22;51898;49.864;8.550;2023-07-22T18:21:02;27.20;34.20
10089;DHT22;51898;49.864;8.550;2023-07-22T18:24:04;27.00;34.70
10089;DHT22;51898;49.864;8.550;2023-07-22T18:27:06;26.90;34.90
10089;DHT22;51898;49.864;8.550;2023-07-22T18:30:08;26.80;35.00
10089;DHT22;51898;49.864;8.550;2023-07-22T18:33:10;26.70;35.20
10089;DHT22;51898;49.864;8.550;2023-07-22T18:36:12;26.50;35.50
10089;DHT22;51898;49.864;8.550;2023-07-22T18:39:14;26.20;36.10
10089;DHT22;51898;49.864;8.550;2023-07-22T18:42:16;26.00;36.30
10089;DHT22;51898;49.864;8.550;2023-07-22T18:45:18;25.70;36.60
10089;DHT22;51898;49.864;8.550;2023-07-22T18:48:19;25.50;37.10
10089;DHT22;51898;49.864;8.550;2023-07-22T18:51:21;25.20;37.30
10089;DHT22;51898;49.864;8.550;2023-07-22T18:54:23;25.00;37.90
10089;DHT22;51898;49.864;8.550;2023-07-22T18:57:25;24.80;38.60
10089;DHT22;51898;49.864;8.550;2023-07-22T19:00:27;24.70;38.60
10089;DHT22;51898;49.864;8.550;2023-07-22T19:03:29;24.60;39.00
10089;DHT22;51898;49.864;8.550;2023-07-22T19:06:32;24.40;39.40
10089;DHT22;51898;49.864;8.550;2023-07-22T19:09:34;24.30;39.90
10089;DHT22;51898;49.864;8.550;2023-07-22T19:12:36;24.10;40.30
10089;DHT22;51898;49.864;8.550;2023-07-22T19:15:37;23.90;40.60